Catàleg de serveis del Meteocat
Campanya meteocatpedra

Dades de l'estació automàtica Vilanova de Segrià

?
?
Resum diari 21:30 TU
Dades diàries de l'estació meteorològica
Temperatura mitjana 14.5 °C
Temperatura màxima 18.6 °C 14:12 TU
Temperatura mínima 10.0 °C 1:41 TU
Humitat relativa mitjana 64%
Precipitació acumulada 0.0 mm
Ratxa màxima del vent (2 m) 31.3 km/h - 117º 15:19 TU
Irradiació solar global 8.0 MJ/m2

El tram horari està expressat en Temps Universal (TU). Cal sumar una hora en horari d'hivern i dues en horari d'estiu per passar a l'hora oficial.

Vilanova de Segrià

Metadades estació meteorol´gica
Municipi Vilanova de Segrià
Comarca Segrià
Altitud 222 m
Data alta 17.09.1997
Estat actual Operativa
Dades de període
Període
TU
TM
°C
TX
°C
TN
°C
HRM
%
PPT
mm
VVM (2 m)
km/h
DVM (2 m)
graus
VVX (2 m)
km/h
RS
W/m2
00:00 - 00:30 11.6 11.7 11.4 77 0.0 4.0 95 11.9 0
00:30 - 01:00 11.5 11.7 11.3 78 0.0 4.7 94 10.4 0
01:00 - 01:30 10.8 11.3 10.4 84 0.0 2.9 115 9.0 0
01:30 - 02:00 10.3 10.5 10.0 87 0.0 1.8 86 7.9 0
02:00 - 02:30 10.5 10.7 10.1 87 0.0 4.7 85 11.2 0
02:30 - 03:00 10.5 10.5 10.3 87 0.0 3.6 83 11.2 0
03:00 - 03:30 10.6 10.8 10.3 88 0.0 4.3 82 10.1 0
03:30 - 04:00 10.2 10.4 10.1 89 0.0 4.7 73 15.5 0
04:00 - 04:30 10.6 10.7 10.3 86 0.0 7.6 80 15.8 0
04:30 - 05:00 10.8 10.9 10.7 86 0.0 5.0 82 10.8 0
05:00 - 05:30 10.5 10.8 10.3 87 0.0 3.6 102 10.1 3
05:30 - 06:00 10.9 11.5 10.4 85 0.0 4.3 108 13.7 30
06:00 - 06:30 11.5 11.6 11.4 82 0.0 5.4 87 11.5 68
06:30 - 07:00 11.5 11.7 11.4 83 0.0 6.8 85 16.6 102
07:00 - 07:30 12.4 13.1 11.8 80 0.0 4.3 114 10.8 260
07:30 - 08:00 13.9 14.4 13.1 73 0.0 6.8 88 12.2 424
08:00 - 08:30 13.7 14.2 13.4 71 0.0 4.0 88 10.1 119
08:30 - 09:00 13.6 13.6 13.5 72 0.0 8.3 76 18.4 100
09:00 - 09:30 14.1 14.7 13.6 70 0.0 10.8 84 24.5 192
09:30 - 10:00 14.6 15.0 14.5 71 0.0 9.7 88 21.2 191
10:00 - 10:30 15.0 15.1 14.9 65 0.0 13.0 84 28.1 147
10:30 - 11:00 15.4 15.7 15.1 63 0.0 8.6 92 23.0 172
11:00 - 11:30 16.0 16.2 15.7 59 0.0 8.6 105 23.4 269
11:30 - 12:00 16.6 16.9 16.2 59 0.0 11.9 119 26.6 294
12:00 - 12:30 16.9 17.1 16.8 58 0.0 10.4 121 26.6 222
12:30 - 13:00 17.5 17.9 17.1 51 0.0 13.7 118 28.1 244
13:00 - 13:30 17.9 17.9 17.8 48 0.0 13.0 113 28.1 211
13:30 - 14:00 18.2 18.5 17.9 47 0.0 10.8 106 23.4 281
14:00 - 14:30 18.6 18.6 18.5 47 0.0 9.0 93 20.5 248
14:30 - 15:00 18.4 18.5 18.3 46 0.0 10.4 111 26.3 170
15:00 - 15:30 18.5 18.6 18.4 45 0.0 14.4 118 31.3 178
15:30 - 16:00 18.2 18.4 18.1 47 0.0 12.2 117 28.1 129
16:00 - 16:30 18.0 18.1 17.8 48 0.0 15.1 121 28.4 107
16:30 - 17:00 17.6 17.8 17.5 51 0.0 13.0 126 28.8 126
17:00 - 17:30 17.2 17.4 17.0 54 0.0 9.4 127 18.7 96
17:30 - 18:00 17.0 17.1 16.9 52 0.0 7.9 119 18.4 47
18:00 - 18:30 16.9 17.0 16.5 52 0.0 7.6 108 19.8 14
18:30 - 19:00 16.5 16.6 16.4 49 0.0 10.1 111 26.3 1
19:00 - 19:30 16.5 16.6 16.3 44 0.0 10.1 106 25.9 0
19:30 - 20:00 16.2 16.4 15.9 44 0.0 9.0 93 22.7 0
20:00 - 20:30 15.6 15.9 15.3 44 0.0 9.4 92 19.8 0
20:30 - 21:00 15.2 15.3 15.1 48 0.0 8.3 101 17.3 0
21:00 - 21:30 15.2 15.4 15.1 46 0.0 11.5 107 24.8 0
21:30 - 22:00 15.2 15.3 15.1 46 0.0 10.8 93 22.0 0

Les dades en taronja només han passat un control de qualitat automàtic. Resta pendent la seva validació definitiva.